Time;durP1;ratioP1;P1;durP2;ratioP2;P2;SDS_P1;SDS_P2;PMS_P1;PMS_P2;Temp;Humidity;BMP_temperature;BMP_pressure;BME280_temperature;BME280_humidity;BME280_pressure;Samples;Min_cycle;Max_cycle;Signal;HPM_P1;HPM_P2
2022/09/17 00:00:19;;;;;;;;;;;19.30;95.10;;;;;;4972841;28;19926;-72
2022/09/17 00:02:51;;;;;;;;;;;19.30;94.70;;;;;;4973828;28;19915;-72
2022/09/17 00:05:17;;;;;;;;;;;19.30;95.10;;;;;;4973036;28;19917;-74
2022/09/17 00:07:45;;;;;;;;;;;19.30;94.90;;;;;;4973679;28;19914;-72
2022/09/17 00:10:12;;;;;;;;;;;19.30;95.40;;;;;;4972141;28;19918;-75
2022/09/17 00:12:39;;;;;;;;;;;19.30;95.60;;;;;;4971562;28;19929;-73
2022/09/17 00:15:06;;;;;;;;;;;19.50;94.70;;;;;;4973522;28;19910;-75
2022/09/17 00:17:32;;;;;;;;;;;19.50;95.30;;;;;;4972681;28;19921;-74
2022/09/17 00:19:59;;;;;;;;;;;19.60;95.20;;;;;;4972365;28;20285;-72
2022/09/17 00:22:25;;;;;;;;;;;19.60;94.90;;;;;;4972784;28;20368;-70
2022/09/17 00:24:52;;;;;;;;;;;19.70;94.20;;;;;;4973345;28;19921;-70
2022/09/17 00:27:19;;;;;;;;;;;19.70;94.70;;;;;;4972309;28;19923;-71
2022/09/17 00:29:47;;;;;;;;;;;19.80;94.10;;;;;;4971277;28;19984;-72
2022/09/17 00:32:14;;;;;;;;;;;19.80;94.20;;;;;;4973256;28;19926;-74
2022/09/17 00:34:41;;;;;;;;;;;19.90;94.60;;;;;;4971368;28;20013;-70
2022/09/17 00:37:08;;;;;;;;;;;20.00;94.80;;;;;;4972814;28;19918;-73
2022/09/17 00:39:38;;;;;;;;;;;20.00;94.20;;;;;;4970974;28;20342;-73
2022/09/17 00:42:09;;;;;;;;;;;20.10;93.90;;;;;;4973370;28;19910;-72
2022/09/17 00:44:36;;;;;;;;;;;20.30;93.50;;;;;;4972355;28;19973;-71
2022/09/17 00:47:02;;;;;;;;;;;20.30;94.00;;;;;;4972661;28;19992;-71
2022/09/17 00:49:30;;;;;;;;;;;20.30;93.60;;;;;;4971155;28;19945;-70
2022/09/17 00:51:59;;;;;;;;;;;20.40;93.30;;;;;;4972305;28;20353;-72
2022/09/17 00:54:26;;;;;;;;;;;20.50;93.30;;;;;;4973086;28;19917;-73
2022/09/17 00:56:53;;;;;;;;;;;20.50;93.20;;;;;;4972377;28;20264;-72
2022/09/17 00:59:21;;;;;;;;;;;20.50;93.10;;;;;;4973104;28;19945;-72
2022/09/17 01:01:48;;;;;;;;;;;20.60;93.50;;;;;;4972383;28;19968;-70
2022/09/17 01:04:16;;;;;;;;;;;21.00;93.40;;;;;;4971443;28;20345;-74
2022/09/17 01:07:04;;;;;;;;;;;21.20;93.00;;;;;;4975315;28;19964;-73
2022/09/17 01:09:31;;;;;;;;;;;21.00;93.40;;;;;;4948393;29;19930;-72
2022/09/17 01:12:03;;;;;;;;;;;20.80;93.20;;;;;;4954837;29;19922;-71
2022/09/17 01:14:38;;;;;;;;;;;20.60;93.50;;;;;;4968478;28;19938;-71
2022/09/17 01:17:08;;;;;;;;;;;20.50;93.70;;;;;;4970441;28;19914;-72
2022/09/17 01:20:00;;;;;;;;;;;20.40;94.10;;;;;;4972928;28;19917;-73
2022/09/17 01:22:43;;;;;;;;;;;20.40;93.90;;;;;;4966621;28;20332;-71
2022/09/17 01:25:13;;;;;;;;;;;20.20;95.30;;;;;;4976589;28;19917;-70
2022/09/17 01:27:58;;;;;;;;;;;20.00;97.50;;;;;;4976025;28;19918;-69
2022/09/17 01:30:31;;;;;;;;;;;19.80;96.70;;;;;;4990250;28;19914;-69
2022/09/17 01:33:02;;;;;;;;;;;19.50;96.90;;;;;;4989007;28;19918;-73
2022/09/17 01:35:42;;;;;;;;;;;19.50;97.30;;;;;;4975735;28;19910;-72
2022/09/17 01:38:26;;;;;;;;;;;19.30;97.00;;;;;;4975894;28;19914;-73
2022/09/17 01:40:59;;;;;;;;;;;19.30;97.50;;;;;;4976430;28;19997;-73
2022/09/17 01:43:52;;;;;;;;;;;19.20;97.40;;;;;;4976040;28;19914;-73
2022/09/17 01:46:18;;;;;;;;;;;19.00;97.00;;;;;;4973486;28;19989;-73
2022/09/17 01:48:46;;;;;;;;;;;19.10;97.90;;;;;;4975834;28;20321;-71
2022/09/17 01:51:18;;;;;;;;;;;19.10;97.40;;;;;;4974716;28;19922;-74
2022/09/17 01:54:20;;;;;;;;;;;19.10;97.70;;;;;;4964830;28;19937;-70
2022/09/17 01:56:54;;;;;;;;;;;19.20;97.40;;;;;;4934759;29;20416;-72
2022/09/17 01:59:40;;;;;;;;;;;19.10;97.70;;;;;;4969819;28;19938;-70
2022/09/17 02:02:12;;;;;;;;;;;19.00;98.30;;;;;;4975664;28;19972;-71
2022/09/17 02:04:43;;;;;;;;;;;18.70;98.60;;;;;;4975773;28;19910;-71
2022/09/17 02:07:18;;;;;;;;;;;18.90;98.90;;;;;;4975259;28;19914;-71
2022/09/17 02:09:54;;;;;;;;;;;19.10;99.40;;;;;;4975772;28;19910;-70
2022/09/17 02:12:23;;;;;;;;;;;19.10;99.20;;;;;;4975944;28;20020;-73
2022/09/17 02:14:51;;;;;;;;;;;19.10;98.90;;;;;;4975830;28;20433;-74
2022/09/17 02:17:31;;;;;;;;;;;19.00;99.50;;;;;;4975511;28;20381;-72
2022/09/17 02:19:58;;;;;;;;;;;18.90;99.90;;;;;;4975954;28;19985;-70
2022/09/17 02:22:47;;;;;;;;;;;18.70;99.90;;;;;;4975903;28;20039;-72
2022/09/17 02:25:19;;;;;;;;;;;18.60;99.90;;;;;;4975393;28;20293;-74
2022/09/17 02:27:57;;;;;;;;;;;18.50;99.90;;;;;;4974822;28;19916;-70
2022/09/17 02:30:24;;;;;;;;;;;18.50;99.90;;;;;;4975808;28;19910;-71
2022/09/17 02:32:51;;;;;;;;;;;18.60;99.90;;;;;;4975295;28;20363;-71
2022/09/17 02:35:18;;;;;;;;;;;18.70;99.90;;;;;;4973782;28;19969;-70
2022/09/17 02:37:45;;;;;;;;;;;18.90;99.90;;;;;;4972474;28;19922;-72
2022/09/17 02:40:13;;;;;;;;;;;19.00;99.90;;;;;;4975333;28;20461;-72
2022/09/17 02:42:58;;;;;;;;;;;19.20;99.90;;;;;;4974855;28;19917;-72
2022/09/17 02:45:40;;;;;;;;;;;19.20;99.90;;;;;;4975906;28;19911;-71
2022/09/17 02:48:20;;;;;;;;;;;19.30;99.90;;;;;;4973137;28;19965;-72
2022/09/17 02:50:53;;;;;;;;;;;19.30;99.90;;;;;;4961106;28;19921;-73
2022/09/17 02:53:19;;;;;;;;;;;19.20;99.30;;;;;;4975541;28;20016;-69
2022/09/17 02:56:08;;;;;;;;;;;19.30;99.40;;;;;;4974871;28;19914;-74
2022/09/17 02:58:44;;;;;;;;;;;19.40;99.60;;;;;;4975280;28;19998;-71
2022/09/17 03:01:20;;;;;;;;;;;19.40;99.50;;;;;;4975873;28;20001;-69
2022/09/17 03:03:50;;;;;;;;;;;19.60;99.90;;;;;;4973360;28;19918;-73
2022/09/17 03:06:17;;;;;;;;;;;19.60;99.90;;;;;;4976661;28;20000;-72
2022/09/17 03:08:46;;;;;;;;;;;19.50;99.50;;;;;;4988117;28;20056;-70
2022/09/17 03:11:13;;;;;;;;;;;19.50;99.60;;;;;;4982658;28;19925;-71
2022/09/17 03:13:39;;;;;;;;;;;19.60;99.50;;;;;;4975094;28;20432;-72
2022/09/17 03:16:06;;;;;;;;;;;19.80;98.50;;;;;;4974893;28;20357;-73
2022/09/17 03:18:33;;;;;;;;;;;19.80;98.30;;;;;;4975420;28;19910;-73
2022/09/17 03:21:00;;;;;;;;;;;19.80;98.00;;;;;;4974918;28;19914;-69
2022/09/17 03:23:26;;;;;;;;;;;19.70;97.50;;;;;;4974599;28;20277;-71
2022/09/17 03:25:54;;;;;;;;;;;19.80;97.90;;;;;;4975000;28;19918;-68
2022/09/17 03:28:20;;;;;;;;;;;19.90;97.90;;;;;;4974586;28;19972;-69
2022/09/17 03:30:47;;;;;;;;;;;19.90;97.40;;;;;;4974749;28;19910;-69
2022/09/17 03:33:14;;;;;;;;;;;20.00;97.10;;;;;;4974655;28;20026;-68
2022/09/17 03:35:44;;;;;;;;;;;20.20;97.40;;;;;;4974479;28;20013;-69
2022/09/17 03:38:11;;;;;;;;;;;20.10;96.60;;;;;;4974308;28;19919;-69
2022/09/17 03:40:39;;;;;;;;;;;20.00;96.90;;;;;;4974408;28;19914;-69
2022/09/17 03:43:06;;;;;;;;;;;20.00;97.10;;;;;;4956747;28;19914;-72
2022/09/17 03:45:33;;;;;;;;;;;19.90;98.00;;;;;;4973931;28;20262;-69
2022/09/17 03:48:00;;;;;;;;;;;19.80;98.00;;;;;;4974173;28;19910;-68
2022/09/17 03:50:27;;;;;;;;;;;19.70;97.80;;;;;;4974195;28;20284;-69
2022/09/17 03:52:53;;;;;;;;;;;19.60;97.50;;;;;;4956725;28;19962;-69
2022/09/17 03:55:21;;;;;;;;;;;19.70;98.40;;;;;;4974191;28;19914;-69
2022/09/17 03:57:50;;;;;;;;;;;19.80;99.20;;;;;;4974153;28;19910;-72
2022/09/17 04:00:16;;;;;;;;;;;19.80;98.80;;;;;;4974044;28;20416;-68
2022/09/17 04:02:43;;;;;;;;;;;19.70;99.10;;;;;;4974267;28;19910;-69
2022/09/17 04:05:12;;;;;;;;;;;19.50;98.40;;;;;;4973797;28;20342;-68
2022/09/17 04:07:40;;;;;;;;;;;19.50;98.50;;;;;;4973769;28;19914;-69
2022/09/17 04:10:07;;;;;;;;;;;19.40;98.20;;;;;;4973676;28;19914;-70
2022/09/17 04:12:34;;;;;;;;;;;19.60;98.80;;;;;;4973827;28;19961;-68
2022/09/17 04:15:01;;;;;;;;;;;19.60;97.80;;;;;;4973811;28;20320;-70
2022/09/17 04:17:27;;;;;;;;;;;19.70;97.70;;;;;;4973147;28;19964;-69
2022/09/17 04:19:54;;;;;;;;;;;19.70;97.70;;;;;;4973700;28;20008;-68
2022/09/17 04:22:21;;;;;;;;;;;19.70;97.40;;;;;;4973712;28;19918;-69
2022/09/17 04:24:47;;;;;;;;;;;19.70;97.00;;;;;;4973342;28;19953;-68
2022/09/17 04:27:14;;;;;;;;;;;19.60;96.90;;;;;;4972776;28;19910;-67
2022/09/17 04:29:41;;;;;;;;;;;19.70;97.20;;;;;;4973743;28;19984;-68
2022/09/17 04:32:08;;;;;;;;;;;19.80;97.40;;;;;;4973475;28;19925;-69
2022/09/17 04:34:34;;;;;;;;;;;19.90;96.60;;;;;;4973444;28;19914;-69
2022/09/17 04:37:01;;;;;;;;;;;20.00;96.40;;;;;;4973137;28;20366;-69
2022/09/17 04:39:29;;;;;;;;;;;19.90;96.80;;;;;;4973159;28;19910;-69
2022/09/17 04:41:56;;;;;;;;;;;19.90;95.90;;;;;;4973702;28;19955;-69
2022/09/17 04:44:24;;;;;;;;;;;19.80;96.00;;;;;;4985819;28;19933;-70
2022/09/17 04:46:50;;;;;;;;;;;19.90;96.60;;;;;;4977948;28;19914;-70
2022/09/17 04:49:17;;;;;;;;;;;19.90;96.20;;;;;;4973021;28;19964;-68
2022/09/17 04:51:44;;;;;;;;;;;19.90;96.20;;;;;;4972787;28;19937;-70
2022/09/17 04:54:10;;;;;;;;;;;19.90;95.50;;;;;;4972952;28;20376;-70
2022/09/17 04:56:37;;;;;;;;;;;20.00;95.80;;;;;;4972628;28;19914;-69
2022/09/17 04:59:03;;;;;;;;;;;20.10;93.50;;;;;;4976574;28;19917;-72
2022/09/17 05:01:30;;;;;;;;;;;20.10;93.30;;;;;;4976956;28;19914;-69
2022/09/17 05:03:57;;;;;;;;;;;20.10;93.30;;;;;;4977062;28;20368;-71
2022/09/17 05:06:23;;;;;;;;;;;20.10;93.70;;;;;;4978199;28;20336;-69
2022/09/17 05:08:50;;;;;;;;;;;20.10;92.60;;;;;;4977062;28;19910;-70
2022/09/17 05:11:17;;;;;;;;;;;20.10;92.40;;;;;;4976686;28;19914;-70
2022/09/17 05:13:43;;;;;;;;;;;20.20;92.40;;;;;;4976916;28;19917;-73
2022/09/17 05:16:10;;;;;;;;;;;20.10;92.70;;;;;;4976359;28;19933;-70
2022/09/17 05:18:37;;;;;;;;;;;20.00;93.10;;;;;;4976648;28;19933;-70
2022/09/17 05:21:04;;;;;;;;;;;19.90;93.30;;;;;;4976430;28;20049;-69
2022/09/17 05:23:30;;;;;;;;;;;19.80;94.00;;;;;;4976610;28;19918;-69
2022/09/17 05:25:59;;;;;;;;;;;19.90;93.80;;;;;;4959102;28;19933;-70
2022/09/17 05:28:26;;;;;;;;;;;19.80;94.60;;;;;;4976196;28;19918;-70
2022/09/17 05:30:52;;;;;;;;;;;19.80;94.20;;;;;;4976511;28;19954;-68
2022/09/17 05:33:19;;;;;;;;;;;19.80;94.30;;;;;;4976145;28;20377;-69
2022/09/17 05:35:47;;;;;;;;;;;19.80;95.00;;;;;;4976486;28;19910;-71
2022/09/17 05:38:14;;;;;;;;;;;19.80;93.90;;;;;;4975969;28;19917;-68
2022/09/17 05:40:41;;;;;;;;;;;19.80;94.40;;;;;;4976313;28;19914;-69
2022/09/17 05:43:09;;;;;;;;;;;20.00;93.60;;;;;;4975563;28;19956;-69
2022/09/17 05:45:36;;;;;;;;;;;20.00;93.30;;;;;;4976185;28;20365;-68
2022/09/17 05:48:04;;;;;;;;;;;19.90;93.10;;;;;;4975877;28;20369;-68
2022/09/17 05:50:31;;;;;;;;;;;19.90;93.40;;;;;;4976407;28;19925;-69
2022/09/17 05:53:03;;;;;;;;;;;19.90;93.50;;;;;;4958577;28;19922;-68
2022/09/17 05:55:30;;;;;;;;;;;19.80;93.40;;;;;;4975694;28;19914;-68
2022/09/17 05:57:57;;;;;;;;;;;19.70;93.70;;;;;;4975797;28;19910;-70
2022/09/17 06:00:23;;;;;;;;;;;19.70;93.40;;;;;;4975968;28;20391;-72
2022/09/17 06:02:56;;;;;;;;;;;19.70;93.60;;;;;;4976000;28;19910;-69
2022/09/17 06:05:24;;;;;;;;;;;19.70;93.00;;;;;;4975993;28;20001;-70
2022/09/17 06:07:51;;;;;;;;;;;19.60;93.00;;;;;;4974440;28;19918;-71
2022/09/17 06:10:19;;;;;;;;;;;19.60;93.50;;;;;;4974633;28;19914;-70
2022/09/17 06:12:46;;;;;;;;;;;19.50;93.40;;;;;;4958858;28;19922;-72
2022/09/17 06:15:13;;;;;;;;;;;19.60;92.30;;;;;;4975578;28;19957;-68
2022/09/17 06:17:40;;;;;;;;;;;19.50;92.90;;;;;;4976485;28;19914;-67
2022/09/17 06:20:07;;;;;;;;;;;19.60;93.00;;;;;;4979619;28;19917;-67
2022/09/17 06:22:34;;;;;;;;;;;19.50;92.80;;;;;;4978544;28;19915;-68
2022/09/17 06:25:02;;;;;;;;;;;19.60;93.50;;;;;;4978286;28;19914;-69
2022/09/17 06:27:32;;;;;;;;;;;19.60;93.00;;;;;;4983362;28;19926;-69
2022/09/17 06:29:59;;;;;;;;;;;19.70;92.20;;;;;;4982551;28;19914;-69
2022/09/17 06:32:26;;;;;;;;;;;19.60;92.90;;;;;;4983343;28;19918;-70
2022/09/17 06:34:54;;;;;;;;;;;19.50;92.70;;;;;;4980696;28;19914;-72
2022/09/17 06:37:27;;;;;;;;;;;19.40;92.10;;;;;;4973087;28;19918;-72
2022/09/17 06:39:54;;;;;;;;;;;19.30;92.50;;;;;;4975826;28;19960;-72
2022/09/17 06:42:22;;;;;;;;;;;19.30;92.60;;;;;;4974412;28;19918;-71
2022/09/17 06:44:48;;;;;;;;;;;19.30;92.20;;;;;;4957244;28;20300;-72
2022/09/17 06:47:15;;;;;;;;;;;19.30;91.70;;;;;;4973888;28;19918;-72
2022/09/17 06:49:42;;;;;;;;;;;19.40;91.70;;;;;;4973203;28;19918;-74
2022/09/17 06:52:08;;;;;;;;;;;19.40;91.80;;;;;;4974758;28;20353;-70
2022/09/17 06:54:35;;;;;;;;;;;19.40;92.00;;;;;;4973836;28;19918;-73
2022/09/17 06:57:02;;;;;;;;;;;19.30;92.10;;;;;;4974700;28;19952;-71
2022/09/17 06:59:28;;;;;;;;;;;19.30;91.90;;;;;;4973901;28;19988;-72
2022/09/17 07:01:55;;;;;;;;;;;19.20;92.70;;;;;;4976313;28;19946;-69
2022/09/17 07:04:22;;;;;;;;;;;19.20;92.20;;;;;;4976118;28;19965;-70
2022/09/17 07:06:48;;;;;;;;;;;19.20;93.10;;;;;;4975064;28;19917;-71
2022/09/17 07:09:15;;;;;;;;;;;19.20;93.00;;;;;;4972766;28;19914;-72
2022/09/17 07:11:42;;;;;;;;;;;19.10;93.20;;;;;;4974872;28;19941;-69
2022/09/17 07:14:08;;;;;;;;;;;19.00;93.50;;;;;;4973655;28;20329;-69
2022/09/17 07:16:35;;;;;;;;;;;18.90;94.00;;;;;;4974143;28;20281;-68
2022/09/17 07:19:03;;;;;;;;;;;18.80;93.80;;;;;;4972491;28;19965;-68
2022/09/17 07:21:29;;;;;;;;;;;18.70;93.70;;;;;;4974229;28;19910;-74
2022/09/17 07:23:57;;;;;;;;;;;18.60;93.50;;;;;;4973304;28;19918;-72
2022/09/17 07:26:24;;;;;;;;;;;18.60;94.30;;;;;;4974454;28;19914;-72
2022/09/17 07:28:51;;;;;;;;;;;18.50;93.30;;;;;;4972115;28;19918;-71
2022/09/17 07:31:17;;;;;;;;;;;18.50;93.30;;;;;;4974063;28;19917;-68
2022/09/17 07:33:44;;;;;;;;;;;18.40;93.80;;;;;;4973084;28;19972;-72
2022/09/17 07:36:12;;;;;;;;;;;18.40;93.70;;;;;;4974011;28;20663;-71
2022/09/17 07:38:39;;;;;;;;;;;18.40;93.80;;;;;;4973330;28;20034;-69
2022/09/17 07:41:12;;;;;;;;;;;18.30;94.10;;;;;;4956702;28;19921;-70
2022/09/17 07:43:39;;;;;;;;;;;18.30;93.40;;;;;;4973328;28;19917;-73
2022/09/17 07:46:07;;;;;;;;;;;18.20;94.20;;;;;;4973829;28;19914;-72
2022/09/17 07:48:34;;;;;;;;;;;18.20;93.50;;;;;;4970111;28;19949;-73
2022/09/17 07:51:00;;;;;;;;;;;18.10;94.10;;;;;;4972022;28;19914;-72
2022/09/17 07:53:27;;;;;;;;;;;18.00;94.20;;;;;;4971207;28;19972;-70
2022/09/17 07:55:55;;;;;;;;;;;17.90;94.40;;;;;;4972106;28;19925;-75
2022/09/17 07:58:22;;;;;;;;;;;17.90;94.00;;;;;;4972789;28;19932;-70
2022/09/17 08:00:49;;;;;;;;;;;17.80;94.00;;;;;;4989510;28;20273;-73
2022/09/17 08:03:16;;;;;;;;;;;17.70;94.80;;;;;;4973211;28;19914;-72
2022/09/17 08:05:43;;;;;;;;;;;17.70;94.80;;;;;;4972004;28;19914;-73
2022/09/17 08:08:10;;;;;;;;;;;17.70;95.10;;;;;;4971576;28;19985;-72
2022/09/17 08:10:36;;;;;;;;;;;17.60;94.70;;;;;;4971751;28;20641;-72
2022/09/17 08:13:03;;;;;;;;;;;17.60;95.20;;;;;;4971392;28;20373;-69
2022/09/17 08:15:30;;;;;;;;;;;17.60;95.60;;;;;;4971460;28;19917;-73
2022/09/17 08:17:56;;;;;;;;;;;17.50;95.40;;;;;;4971565;28;19962;-70
2022/09/17 08:20:25;;;;;;;;;;;17.40;95.60;;;;;;4971576;28;19911;-70
2022/09/17 08:22:58;;;;;;;;;;;17.30;95.80;;;;;;4971260;28;19914;-68
2022/09/17 08:25:24;;;;;;;;;;;17.30;95.70;;;;;;4953968;28;19918;-68
2022/09/17 08:27:55;;;;;;;;;;;17.30;96.10;;;;;;4970840;28;19965;-72
2022/09/17 08:30:22;;;;;;;;;;;17.30;95.80;;;;;;4971803;28;20341;-72
2022/09/17 08:32:49;;;;;;;;;;;17.20;96.10;;;;;;4970635;28;20365;-71
2022/09/17 08:35:16;;;;;;;;;;;17.20;95.80;;;;;;4971309;28;20377;-73
2022/09/17 08:37:43;;;;;;;;;;;17.30;96.20;;;;;;4970919;28;19914;-69
2022/09/17 08:40:15;;;;;;;;;;;17.20;96.50;;;;;;4971211;28;19918;-71
2022/09/17 08:42:49;;;;;;;;;;;17.20;96.50;;;;;;4971606;28;19914;-71
2022/09/17 08:45:17;;;;;;;;;;;17.10;96.50;;;;;;4971319;28;19977;-71
2022/09/17 08:47:48;;;;;;;;;;;17.10;96.10;;;;;;4971012;28;19941;-70
2022/09/17 08:50:18;;;;;;;;;;;17.10;96.10;;;;;;4971340;28;19914;-73
2022/09/17 08:53:03;;;;;;;;;;;17.00;95.50;;;;;;4971139;28;20289;-70
2022/09/17 08:55:47;;;;;;;;;;;17.00;96.40;;;;;;4971104;28;19957;-73
2022/09/17 08:58:34;;;;;;;;;;;17.00;96.00;;;;;;4971249;28;19921;-70
2022/09/17 09:01:00;;;;;;;;;;;17.00;95.90;;;;;;4971503;28;19922;-70
2022/09/17 09:03:42;;;;;;;;;;;16.90;95.80;;;;;;4971114;28;19917;-68
2022/09/17 09:06:14;;;;;;;;;;;16.90;96.10;;;;;;4972789;28;20250;-72
2022/09/17 09:08:54;;;;;;;;;;;16.90;96.30;;;;;;4973034;28;19964;-71
2022/09/17 09:11:26;;;;;;;;;;;16.90;96.60;;;;;;4972890;28;19910;-70
2022/09/17 09:13:57;;;;;;;;;;;16.90;96.40;;;;;;4973216;28;20009;-72
2022/09/17 09:16:31;;;;;;;;;;;16.90;96.30;;;;;;4972716;28;20372;-67
2022/09/17 09:19:10;;;;;;;;;;;16.80;96.60;;;;;;4953617;28;20404;-70
2022/09/17 09:21:52;;;;;;;;;;;16.90;96.30;;;;;;4972255;28;19929;-69
2022/09/17 09:24:25;;;;;;;;;;;16.80;96.50;;;;;;4973155;28;20377;-68
2022/09/17 09:27:15;;;;;;;;;;;16.80;96.10;;;;;;4971970;28;19972;-72
2022/09/17 09:29:42;;;;;;;;;;;16.80;96.30;;;;;;4955712;28;19910;-71
2022/09/17 09:32:16;;;;;;;;;;;16.80;96.30;;;;;;4973445;28;20013;-71
2022/09/17 09:34:43;;;;;;;;;;;16.70;96.60;;;;;;4980630;28;20269;-72
2022/09/17 09:37:15;;;;;;;;;;;16.70;96.50;;;;;;4962719;29;19910;-70
2022/09/17 09:39:43;;;;;;;;;;;16.80;96.80;;;;;;4950523;29;19918;-68
2022/09/17 09:42:13;;;;;;;;;;;16.80;96.50;;;;;;4953303;29;19925;-69
2022/09/17 09:44:39;;;;;;;;;;;16.70;96.60;;;;;;4956357;28;19918;-70
2022/09/17 09:47:25;;;;;;;;;;;16.70;96.90;;;;;;4975566;28;19918;-71
2022/09/17 09:50:01;;;;;;;;;;;16.70;96.50;;;;;;4976441;28;19968;-70
2022/09/17 09:53:05;;;;;;;;;;;16.70;96.70;;;;;;4976226;28;20017;-68
2022/09/17 09:55:49;;;;;;;;;;;16.70;96.40;;;;;;4934216;29;19966;-68
2022/09/17 09:58:31;;;;;;;;;;;16.60;96.70;;;;;;4970992;28;20281;-71
2022/09/17 10:00:58;;;;;;;;;;;16.70;96.80;;;;;;4976217;28;20002;-69
2022/09/17 10:03:32;;;;;;;;;;;16.60;96.20;;;;;;4975008;28;19918;-70
2022/09/17 10:06:00;;;;;;;;;;;16.60;96.90;;;;;;4975890;28;20318;-71
2022/09/17 10:08:28;;;;;;;;;;;16.60;96.40;;;;;;4974418;28;19914;-72
2022/09/17 10:11:02;;;;;;;;;;;16.60;96.70;;;;;;4974422;28;20366;-69
2022/09/17 10:13:30;;;;;;;;;;;16.60;96.90;;;;;;4974265;28;19922;-69
2022/09/17 10:16:07;;;;;;;;;;;16.60;96.80;;;;;;4975275;28;19933;-69
2022/09/17 10:18:33;;;;;;;;;;;16.60;97.10;;;;;;4975077;28;19996;-71
2022/09/17 10:21:00;;;;;;;;;;;16.60;96.70;;;;;;4975819;28;20293;-71
2022/09/17 10:23:32;;;;;;;;;;;16.60;97.00;;;;;;4974627;28;19969;-72
2022/09/17 10:25:59;;;;;;;;;;;16.60;97.10;;;;;;4971804;28;19922;-69
2022/09/17 10:28:31;;;;;;;;;;;16.50;96.20;;;;;;4973444;28;20073;-70
2022/09/17 10:30:59;;;;;;;;;;;16.50;96.70;;;;;;4972026;28;20017;-69
2022/09/17 10:33:30;;;;;;;;;;;16.50;96.60;;;;;;4973332;28;19918;-69
2022/09/17 10:36:00;;;;;;;;;;;16.40;96.70;;;;;;4971883;28;19914;-69
2022/09/17 10:38:28;;;;;;;;;;;16.40;96.60;;;;;;4970912;28;20468;-69
2022/09/17 10:41:08;;;;;;;;;;;16.40;96.30;;;;;;4974496;28;19914;-70
2022/09/17 10:43:34;;;;;;;;;;;16.40;96.50;;;;;;4973512;28;19921;-69
2022/09/17 10:46:01;;;;;;;;;;;16.40;96.10;;;;;;4973847;28;19929;-69
2022/09/17 10:48:32;;;;;;;;;;;16.40;95.90;;;;;;4973953;28;20366;-71
2022/09/17 10:51:01;;;;;;;;;;;16.40;96.20;;;;;;4973094;28;19921;-71
2022/09/17 10:53:28;;;;;;;;;;;16.40;96.10;;;;;;4974850;28;20020;-70
2022/09/17 10:56:12;;;;;;;;;;;16.40;95.80;;;;;;4972507;28;19960;-70
2022/09/17 10:58:46;;;;;;;;;;;16.40;96.30;;;;;;4974859;28;19933;-71
2022/09/17 11:01:15;;;;;;;;;;;16.30;96.40;;;;;;4974083;28;20395;-71
2022/09/17 11:04:00;;;;;;;;;;;16.30;96.40;;;;;;4974827;28;19921;-72
2022/09/17 11:06:45;;;;;;;;;;;16.30;95.90;;;;;;4973211;28;19914;-69
2022/09/17 11:09:25;;;;;;;;;;;16.30;96.40;;;;;;4972328;28;19918;-70
2022/09/17 11:12:00;;;;;;;;;;;16.30;97.10;;;;;;4974394;28;19918;-68
2022/09/17 11:14:36;;;;;;;;;;;16.30;96.60;;;;;;4973640;28;19941;-68
2022/09/17 11:17:06;;;;;;;;;;;16.20;97.10;;;;;;4973995;28;20332;-69
2022/09/17 11:19:41;;;;;;;;;;;16.10;97.00;;;;;;4972619;28;19914;-68
2022/09/17 11:22:17;;;;;;;;;;;16.10;97.10;;;;;;4974459;28;19914;-69
2022/09/17 11:25:01;;;;;;;;;;;16.00;97.30;;;;;;4972683;28;19972;-71
2022/09/17 11:27:45;;;;;;;;;;;16.00;97.10;;;;;;4974120;28;19916;-68
2022/09/17 11:30:15;;;;;;;;;;;15.90;97.40;;;;;;4973247;28;20285;-68
2022/09/17 11:32:42;;;;;;;;;;;15.90;97.60;;;;;;4972234;28;20408;-69
2022/09/17 11:35:15;;;;;;;;;;;15.90;97.40;;;;;;4973446;28;19914;-69
2022/09/17 11:37:48;;;;;;;;;;;15.80;97.70;;;;;;4973983;28;19910;-68
2022/09/17 11:40:17;;;;;;;;;;;15.80;97.60;;;;;;4973100;28;19925;-68
2022/09/17 11:42:46;;;;;;;;;;;15.80;97.60;;;;;;4972171;28;20029;-69
2022/09/17 11:45:45;;;;;;;;;;;15.70;97.40;;;;;;4973770;28;20296;-68
2022/09/17 11:48:14;;;;;;;;;;;15.70;97.40;;;;;;4941497;28;20025;-68
2022/09/17 11:50:47;;;;;;;;;;;15.70;97.40;;;;;;4971784;28;20270;-69
2022/09/17 11:53:25;;;;;;;;;;;15.70;97.70;;;;;;4972572;28;20333;-68
2022/09/17 11:56:10;;;;;;;;;;;15.70;97.60;;;;;;4973487;28;20392;-69
2022/09/17 11:58:45;;;;;;;;;;;15.60;97.80;;;;;;4954136;28;19921;-69
2022/09/17 12:01:15;;;;;;;;;;;15.60;97.40;;;;;;4973797;28;20377;-68
2022/09/17 12:04:02;;;;;;;;;;;15.60;97.50;;;;;;4972971;28;20352;-69
2022/09/17 12:06:37;;;;;;;;;;;15.60;97.60;;;;;;4972875;28;19914;-68
2022/09/17 12:09:13;;;;;;;;;;;15.60;97.90;;;;;;4971512;28;19925;-69
2022/09/17 12:11:39;;;;;;;;;;;15.50;97.70;;;;;;4973717;28;19914;-70
2022/09/17 12:14:17;;;;;;;;;;;15.50;97.60;;;;;;4972979;28;19925;-69
2022/09/17 12:16:45;;;;;;;;;;;15.50;97.40;;;;;;4973379;28;19914;-70
2022/09/17 12:19:11;;;;;;;;;;;15.40;97.30;;;;;;4972388;28;19929;-70
2022/09/17 12:21:38;;;;;;;;;;;15.40;97.70;;;;;;4973325;28;20408;-70
2022/09/17 12:24:17;;;;;;;;;;;15.40;97.90;;;;;;4971005;28;20261;-68
2022/09/17 12:26:50;;;;;;;;;;;15.50;97.50;;;;;;4973119;28;20029;-70
2022/09/17 12:29:33;;;;;;;;;;;15.50;97.50;;;;;;4972112;28;19918;-68
2022/09/17 12:32:17;;;;;;;;;;;15.50;97.80;;;;;;4973714;28;19915;-68
2022/09/17 12:34:47;;;;;;;;;;;15.50;98.00;;;;;;4971717;28;19922;-71
2022/09/17 12:37:19;;;;;;;;;;;15.50;97.80;;;;;;4972761;28;19916;-71
2022/09/17 12:39:46;;;;;;;;;;;15.50;97.30;;;;;;4971208;28;20377;-70
2022/09/17 12:42:30;;;;;;;;;;;15.40;97.30;;;;;;4973374;28;19918;-70
2022/09/17 12:45:16;;;;;;;;;;;15.50;97.50;;;;;;4972542;28;19920;-71
2022/09/17 12:47:54;;;;;;;;;;;15.50;97.60;;;;;;4972808;28;19910;-72
2022/09/17 12:50:39;;;;;;;;;;;15.50;97.20;;;;;;4972265;28;19914;-72
2022/09/17 12:53:07;;;;;;;;;;;15.50;96.90;;;;;;4971994;28;19932;-68
2022/09/17 12:55:51;;;;;;;;;;;15.50;97.10;;;;;;4973930;28;19916;-72
2022/09/17 12:58:18;;;;;;;;;;;15.50;96.80;;;;;;4972279;28;19961;-72
2022/09/17 13:00:51;;;;;;;;;;;15.50;97.10;;;;;;4973179;28;20396;-71
2022/09/17 13:03:29;;;;;;;;;;;15.60;97.30;;;;;;4972089;28;19910;-71
2022/09/17 13:06:07;;;;;;;;;;;15.50;96.70;;;;;;4972753;28;19921;-71
2022/09/17 13:08:46;;;;;;;;;;;15.50;97.50;;;;;;4969694;28;20373;-69
2022/09/17 13:11:27;;;;;;;;;;;15.50;96.90;;;;;;4972777;28;20441;-71
2022/09/17 13:13:59;;;;;;;;;;;15.50;96.70;;;;;;4972126;28;20013;-71
2022/09/17 13:16:41;;;;;;;;;;;15.50;96.30;;;;;;4972526;28;19918;-72
2022/09/17 13:19:20;;;;;;;;;;;15.50;97.00;;;;;;4972839;28;20354;-71
2022/09/17 13:21:54;;;;;;;;;;;15.50;96.70;;;;;;4976512;28;19922;-71
2022/09/17 13:24:25;;;;;;;;;;;15.60;97.00;;;;;;4969837;28;19921;-68
2022/09/17 13:26:53;;;;;;;;;;;15.50;97.00;;;;;;4976081;28;19918;-70
2022/09/17 13:29:38;;;;;;;;;;;15.50;96.70;;;;;;4975177;28;20366;-71
2022/09/17 13:32:04;;;;;;;;;;;15.50;96.70;;;;;;4976423;28;20033;-72
2022/09/17 13:34:31;;;;;;;;;;;15.50;96.90;;;;;;4974375;28;19940;-70
2022/09/17 13:36:59;;;;;;;;;;;15.50;96.70;;;;;;4974822;28;19914;-72
2022/09/17 13:39:46;;;;;;;;;;;15.40;97.00;;;;;;4976089;28;19914;-71
2022/09/17 13:42:21;;;;;;;;;;;15.40;97.20;;;;;;4975463;28;19911;-71
2022/09/17 13:45:07;;;;;;;;;;;15.50;97.40;;;;;;4976169;28;19918;-71
2022/09/17 13:47:38;;;;;;;;;;;15.50;96.90;;;;;;4972847;28;20004;-71
2022/09/17 13:50:06;;;;;;;;;;;15.50;96.40;;;;;;4976072;28;20373;-72
2022/09/17 13:52:33;;;;;;;;;;;15.50;97.30;;;;;;4975090;28;20353;-72
2022/09/17 13:55:01;;;;;;;;;;;15.50;96.90;;;;;;4974884;28;19920;-72
2022/09/17 13:57:32;;;;;;;;;;;15.50;96.90;;;;;;4958353;28;19961;-72
2022/09/17 13:59:59;;;;;;;;;;;15.50;97.10;;;;;;4974070;28;20258;-72
2022/09/17 14:02:30;;;;;;;;;;;15.50;96.90;;;;;;4975972;28;20344;-71
2022/09/17 14:05:16;;;;;;;;;;;15.40;96.50;;;;;;4974784;28;19933;-72
2022/09/17 14:07:47;;;;;;;;;;;15.40;97.00;;;;;;4958421;28;19910;-71
2022/09/17 14:10:14;;;;;;;;;;;15.40;97.10;;;;;;4974604;28;19953;-71
2022/09/17 14:12:43;;;;;;;;;;;15.50;96.60;;;;;;4975540;28;19992;-72
2022/09/17 14:15:28;;;;;;;;;;;15.50;96.90;;;;;;4973091;28;19918;-71
2022/09/17 14:17:55;;;;;;;;;;;15.50;96.60;;;;;;4975707;28;20030;-71
2022/09/17 14:20:25;;;;;;;;;;;15.40;96.30;;;;;;4960072;28;19922;-72
2022/09/17 14:22:58;;;;;;;;;;;15.40;96.50;;;;;;4939359;29;20033;-71
2022/09/17 14:25:45;;;;;;;;;;;15.40;97.10;;;;;;4955557;29;20304;-72
2022/09/17 14:28:28;;;;;;;;;;;15.50;97.00;;;;;;4962902;28;19930;-71
2022/09/17 14:30:54;;;;;;;;;;;15.40;96.60;;;;;;4975358;28;20254;-71
2022/09/17 14:33:26;;;;;;;;;;;15.40;96.20;;;;;;4973878;28;20024;-72
2022/09/17 14:36:08;;;;;;;;;;;15.40;96.30;;;;;;4974629;28;20357;-71
2022/09/17 14:38:43;;;;;;;;;;;15.40;96.50;;;;;;4974211;28;20377;-71